createdAt,value
2023-05-04T00:12:03.513Z,5.80
2023-05-04T00:25:03.491Z,4.80
2023-05-04T00:38:03.504Z,4.50
2023-05-04T00:51:03.507Z,5.20
2023-05-04T01:04:03.569Z,4.35
2023-05-04T01:17:03.552Z,3.60
2023-05-04T01:30:03.793Z,3.50
2023-05-04T01:43:03.539Z,3.00
2023-05-04T01:56:03.524Z,4.00
2023-05-04T02:09:03.523Z,4.00
2023-05-04T02:22:03.532Z,2.95
2023-05-04T02:35:03.556Z,2.70
2023-05-04T02:48:03.560Z,2.30
2023-05-04T03:01:03.587Z,1.90
2023-05-04T03:14:03.557Z,2.50
2023-05-04T03:27:03.563Z,2.30
2023-05-04T03:40:03.773Z,2.10
2023-05-04T03:54:03.561Z,1.65
2023-05-04T04:08:03.568Z,1.35
2023-05-04T04:22:03.606Z,1.85
2023-05-04T04:36:03.582Z,2.40
2023-05-04T04:50:03.829Z,1.15
2023-05-04T05:04:03.613Z,1.65
2023-05-04T05:18:03.620Z,1.60
2023-05-04T05:32:03.603Z,1.40
2023-05-04T05:46:03.610Z,1.10
2023-05-04T06:00:03.768Z,1.00
2023-05-04T06:14:03.650Z,2.10
2023-05-04T06:28:03.646Z,1.70
2023-05-04T06:42:03.638Z,1.60
2023-05-04T06:56:03.660Z,4.20
2023-05-04T07:10:03.860Z,43.90
2023-05-04T07:24:03.654Z,31.80
2023-05-04T07:38:03.675Z,32.10
2023-05-04T07:52:03.698Z,26.60
2023-05-04T08:06:03.758Z,24.50
2023-05-04T08:20:03.752Z,19.90
2023-05-04T08:34:03.791Z,15.70
2023-05-04T08:48:03.796Z,11.70
2023-05-04T09:02:03.943Z,8.60
2023-05-04T09:16:03.781Z,9.20
2023-05-04T09:30:03.777Z,8.70
2023-05-04T09:44:03.787Z,5.60
2023-05-04T09:58:03.792Z,4.50
2023-05-04T10:12:03.793Z,3.90
2023-05-04T10:23:03.786Z,3.80
2023-05-04T10:37:03.797Z,3.40
2023-05-04T10:51:03.792Z,3.80
2023-05-04T11:05:03.943Z,4.40
2023-05-04T11:19:03.809Z,24.60
2023-05-04T11:33:03.896Z,16.20
2023-05-04T11:47:03.827Z,10.10
2023-05-04T12:01:03.817Z,8.00
2023-05-04T12:15:03.925Z,7.80
2023-05-04T12:29:03.846Z,5.90
2023-05-04T12:43:05.518Z,4.40
2023-05-04T12:57:03.841Z,3.40
2023-05-04T13:11:03.844Z,3.80
2023-05-04T13:25:04.488Z,3.20
2023-05-04T13:39:03.847Z,4.20
2023-05-04T13:53:05.314Z,2.50
2023-05-04T14:04:05.425Z,2.50
2023-05-04T14:18:03.920Z,2.70
2023-05-04T14:32:03.926Z,2.50
2023-05-04T14:46:03.906Z,3.05
2023-05-04T15:00:03.864Z,2.00
2023-05-04T15:14:03.873Z,2.00
2023-05-04T15:28:03.873Z,2.40
2023-05-04T15:42:03.868Z,4.70
2023-05-04T15:56:05.674Z,3.20
2023-05-04T16:10:03.897Z,2.70
2023-05-04T16:24:03.877Z,2.40
2023-05-04T16:38:03.897Z,2.20
2023-05-04T16:52:03.918Z,5.70
2023-05-04T17:06:03.902Z,2.40
2023-05-04T17:20:03.908Z,2.10
2023-05-04T17:34:03.895Z,4.20
2023-05-04T17:48:03.969Z,3.30
2023-05-04T18:02:03.995Z,2.55
2023-05-04T18:16:03.935Z,2.50
2023-05-04T18:31:03.926Z,7.10
2023-05-04T18:45:03.941Z,6.00
2023-05-04T18:59:03.931Z,5.20
2023-05-04T19:12:03.945Z,4.90
2023-05-04T19:25:03.946Z,5.40
2023-05-04T19:38:03.939Z,5.40
2023-05-04T19:51:03.960Z,7.20
2023-05-04T20:04:04.054Z,11.60
2023-05-04T20:17:04.088Z,15.55
2023-05-04T20:30:03.962Z,15.30
2023-05-04T20:43:03.977Z,17.70
2023-05-04T20:56:03.971Z,16.20
2023-05-04T21:09:03.978Z,15.70
2023-05-04T21:22:03.997Z,12.70
2023-05-04T21:35:03.992Z,11.90
2023-05-04T21:48:04.077Z,10.65
2023-05-04T22:01:04.070Z,10.70
2023-05-04T22:14:04.025Z,11.00
2023-05-04T22:27:04.047Z,11.30
2023-05-04T22:40:04.072Z,8.30
2023-05-04T22:53:04.130Z,9.40
2023-05-04T23:06:04.066Z,8.20
2023-05-04T23:19:04.070Z,6.10
2023-05-04T23:32:04.105Z,7.30
2023-05-04T23:45:04.076Z,6.20
2023-05-04T23:58:04.079Z,4.40
